Portada
METAR-TAF:

METAR-TAF

Aeropuertos :

Tahlequah, Oklahoma, Estados Unidos

latitud: 35-55-44N, longitud: 095-00-16W, altitud: 266 m

Observación

El informe se hizo hace 32 minutos, a las 22:35 UTC
Viento 13 kt del sur-sureste con ráfagas de 19 kt
Temperatura 21°C
Humedad 43%
Presión 1011 hPa
Visibilidad: 16.1 km
Cielo despejado

METAR: KTQH 022235Z AUTO 16013G19KT 10SM CLR 21/08 A2986 RMK AO2

Hora: 18:07 (23:07 UTC)


TAF: falta

Observaciones y pronósticos meteorológicos de más de 4000 aeropuertos (mensajes METAR y TAF).

Los puntos amarillos y rojos representan las estaciones disponibles.

Ponga el ratón en el punto deseado para ver el nombre de la estación.

Haga clic para ver las observaciones y los pronósticos meteorológicos.

Para cambiar el mapa : haga clic en los botones verdes con una cruz de color negro para hacer un zoom, en el botón verde con un guión para alejar o en las flechas verdes para mapas adyacentes.


METAR-TAF: